createdAt,value
2022-08-03T00:01:41.394Z,8.48
2022-08-03T00:04:08.987Z,9.05
2022-08-03T00:06:37.239Z,6.43
2022-08-03T00:09:08.187Z,6.88
2022-08-03T00:11:35.512Z,7.65
2022-08-03T00:14:02.190Z,8.68
2022-08-03T00:16:28.714Z,8.35
2022-08-03T00:18:55.121Z,7.50
2022-08-03T00:21:21.452Z,7.50
2022-08-03T00:23:52.486Z,8.60
2022-08-03T00:26:20.388Z,10.15
2022-08-03T00:28:46.743Z,7.60
2022-08-03T00:31:13.559Z,8.32
2022-08-03T00:33:59.442Z,7.55
2022-08-03T00:36:28.249Z,9.25
2022-08-03T00:38:55.524Z,8.82
2022-08-03T00:41:22.287Z,8.88
2022-08-03T00:43:48.931Z,10.52
2022-08-03T00:46:21.056Z,12.45
2022-08-03T00:48:52.157Z,8.35
2022-08-03T00:51:22.901Z,7.20
2022-08-03T00:53:50.905Z,8.32
2022-08-03T00:56:17.837Z,7.75
2022-08-03T00:58:45.759Z,7.97
2022-08-03T01:01:12.776Z,7.63
2022-08-03T01:03:39.665Z,8.27
2022-08-03T01:06:18.718Z,8.18
2022-08-03T01:09:07.075Z,10.32
2022-08-03T01:12:00.780Z,7.53
2022-08-03T01:14:50.268Z,8.68
2022-08-03T01:17:28.903Z,8.73
2022-08-03T01:20:09.363Z,6.82
2022-08-03T01:23:00.577Z,11.25
2022-08-03T01:25:48.529Z,9.00
2022-08-03T01:28:53.149Z,9.82
2022-08-03T01:31:26.285Z,8.40
2022-08-03T01:34:10.242Z,9.85
2022-08-03T01:36:48.904Z,8.48
2022-08-03T01:39:16.854Z,9.30
2022-08-03T01:42:00.973Z,10.48
2022-08-03T01:44:31.024Z,7.15
2022-08-03T01:47:02.194Z,13.55
2022-08-03T01:49:32.242Z,9.13
2022-08-03T01:52:04.982Z,9.20
2022-08-03T01:54:37.696Z,7.57
2022-08-03T01:57:04.931Z,10.88
2022-08-03T01:59:34.445Z,8.73
2022-08-03T02:02:28.663Z,6.03
2022-08-03T02:04:52.486Z,8.73
2022-08-03T02:07:19.822Z,10.02
2022-08-03T02:09:52.594Z,9.02
2022-08-03T02:12:22.230Z,7.53
2022-08-03T02:14:49.901Z,3.50
2022-08-03T02:17:16.751Z,4.38
2022-08-03T02:19:44.506Z,4.13
2022-08-03T02:22:12.906Z,4.60
2022-08-03T02:24:39.513Z,6.63
2022-08-03T02:27:14.976Z,9.35
2022-08-03T02:29:44.685Z,10.02
2022-08-03T02:32:17.458Z,13.30
2022-08-03T02:34:47.429Z,11.45
2022-08-03T02:37:14.972Z,10.38
2022-08-03T02:39:43.857Z,9.55
2022-08-03T02:42:14.514Z,10.63
2022-08-03T02:44:42.567Z,14.25
2022-08-03T02:47:11.722Z,11.07
2022-08-03T02:49:51.401Z,12.73
2022-08-03T02:52:21.451Z,8.52
2022-08-03T02:54:50.903Z,14.55
2022-08-03T02:57:18.570Z,12.68
2022-08-03T02:59:45.953Z,10.90
2022-08-03T03:02:13.382Z,10.48
2022-08-03T03:04:55.036Z,9.68
2022-08-03T03:07:27.525Z,9.90
2022-08-03T03:09:56.230Z,12.40
2022-08-03T03:12:23.686Z,8.93
2022-08-03T03:14:50.235Z,10.88
2022-08-03T03:17:17.473Z,9.00
2022-08-03T03:19:45.195Z,5.82
2022-08-03T03:22:13.184Z,6.22
2022-08-03T03:24:41.626Z,8.27
2022-08-03T03:27:08.795Z,8.85
2022-08-03T03:29:39.222Z,6.90
2022-08-03T03:32:12.432Z,8.38
2022-08-03T03:34:38.899Z,10.13
2022-08-03T03:37:05.904Z,8.35
2022-08-03T03:39:32.470Z,12.63
2022-08-03T03:42:00.299Z,10.80
2022-08-03T03:44:28.675Z,11.10
2022-08-03T03:46:57.377Z,12.68
2022-08-03T03:49:24.524Z,7.45
2022-08-03T03:51:55.679Z,8.75
2022-08-03T03:54:22.482Z,12.85
2022-08-03T03:57:05.079Z,10.23
2022-08-03T03:59:31.630Z,11.18
2022-08-03T04:02:01.758Z,13.68
2022-08-03T04:04:35.077Z,13.35
2022-08-03T04:07:01.524Z,12.68
2022-08-03T04:09:28.054Z,14.90
2022-08-03T04:11:58.584Z,12.38
2022-08-03T04:14:35.878Z,11.43
2022-08-03T04:17:05.097Z,13.52
2022-08-03T04:19:34.081Z,11.63
2022-08-03T04:22:05.160Z,13.10
2022-08-03T04:24:35.110Z,14.00
2022-08-03T04:27:04.765Z,11.07
2022-08-03T04:29:34.843Z,11.90
2022-08-03T04:32:01.221Z,10.40
2022-08-03T04:34:29.449Z,14.18
2022-08-03T04:36:59.719Z,14.00
2022-08-03T04:39:31.555Z,13.32
2022-08-03T04:42:08.644Z,11.75
2022-08-03T04:44:41.018Z,13.00
2022-08-03T04:47:07.478Z,11.30
2022-08-03T04:49:36.584Z,10.85
2022-08-03T04:52:04.017Z,11.13
2022-08-03T04:54:31.276Z,13.00
2022-08-03T04:56:57.611Z,11.35
2022-08-03T04:59:23.993Z,10.15
2022-08-03T05:01:50.397Z,12.68
2022-08-03T05:04:16.758Z,12.10
2022-08-03T05:06:48.143Z,11.77
2022-08-03T05:09:14.861Z,10.75
2022-08-03T05:11:41.435Z,11.85
2022-08-03T05:14:07.797Z,9.07
2022-08-03T05:16:34.222Z,13.02
2022-08-03T05:19:00.612Z,13.30
2022-08-03T05:21:26.963Z,12.10
2022-08-03T05:24:13.313Z,12.43
2022-08-03T05:26:39.692Z,11.20
2022-08-03T05:29:06.238Z,10.68
2022-08-03T05:31:32.607Z,11.30
2022-08-03T05:33:58.983Z,11.95
2022-08-03T05:36:25.650Z,12.18
2022-08-03T05:38:52.017Z,16.10
2022-08-03T05:41:21.021Z,12.45
2022-08-03T05:43:54.398Z,12.00
2022-08-03T05:46:22.259Z,13.68
2022-08-03T05:48:48.650Z,11.57
2022-08-03T05:51:15.044Z,17.75
2022-08-03T05:53:42.906Z,9.70
2022-08-03T05:56:13.617Z,9.80
2022-08-03T05:58:43.463Z,9.30
2022-08-03T06:01:09.912Z,11.10
2022-08-03T06:03:36.316Z,12.70
2022-08-03T06:06:02.685Z,14.27
2022-08-03T06:08:29.089Z,10.35
2022-08-03T06:10:55.534Z,11.25
2022-08-03T06:13:21.908Z,11.40
2022-08-03T06:15:48.266Z,10.98
2022-08-03T06:18:14.609Z,11.07
2022-08-03T06:20:40.977Z,9.82
2022-08-03T06:23:07.972Z,11.02
2022-08-03T06:25:42.833Z,10.63
2022-08-03T06:28:15.085Z,11.63
2022-08-03T06:30:46.032Z,12.05
2022-08-03T06:33:12.386Z,11.00
2022-08-03T06:35:38.802Z,12.55
2022-08-03T06:38:08.824Z,7.78
2022-08-03T06:40:36.578Z,10.10
2022-08-03T06:43:03.009Z,10.25
2022-08-03T06:45:31.734Z,8.32
2022-08-03T06:48:09.842Z,11.35
2022-08-03T06:50:38.217Z,10.20
2022-08-03T06:53:05.372Z,9.00
2022-08-03T06:55:32.209Z,13.18
2022-08-03T06:58:03.103Z,9.88
2022-08-03T07:00:30.350Z,11.23
2022-08-03T07:02:58.463Z,10.05
2022-08-03T07:05:25.196Z,11.15
2022-08-03T07:07:55.202Z,13.00
2022-08-03T07:10:21.597Z,9.13
2022-08-03T07:12:56.220Z,11.52
2022-08-03T07:15:54.182Z,9.30
2022-08-03T07:18:11.009Z,8.75
2022-08-03T07:20:37.658Z,8.77
2022-08-03T07:23:04.059Z,9.60
2022-08-03T07:25:30.418Z,9.05
2022-08-03T07:27:56.804Z,7.30
2022-08-03T07:30:24.644Z,10.68
2022-08-03T07:32:51.080Z,11.45
2022-08-03T07:35:24.659Z,9.52
2022-08-03T07:37:54.599Z,11.75
2022-08-03T07:40:21.658Z,11.75
2022-08-03T07:42:48.089Z,9.85
2022-08-03T07:45:18.682Z,11.10
2022-08-03T07:47:53.082Z,12.10
2022-08-03T07:50:20.187Z,8.18
2022-08-03T07:52:46.589Z,12.90
2022-08-03T07:55:12.951Z,12.20
2022-08-03T07:57:39.348Z,7.63
2022-08-03T08:00:12.487Z,10.40
2022-08-03T08:02:39.190Z,9.00
2022-08-03T08:05:06.201Z,12.68
2022-08-03T08:07:32.885Z,13.45
2022-08-03T08:09:59.269Z,11.68
2022-08-03T08:12:25.608Z,9.13
2022-08-03T08:14:51.977Z,11.25
2022-08-03T08:17:19.468Z,13.63
2022-08-03T08:19:51.478Z,11.25
2022-08-03T08:22:19.075Z,9.88
2022-08-03T08:24:55.133Z,12.82
2022-08-03T08:27:21.640Z,10.38
2022-08-03T08:29:55.324Z,9.13
2022-08-03T08:32:23.931Z,10.73
2022-08-03T08:34:50.321Z,10.70
2022-08-03T08:37:16.709Z,9.13
2022-08-03T08:39:43.070Z,9.27
2022-08-03T08:42:10.155Z,9.07
2022-08-03T08:44:36.615Z,10.02
2022-08-03T08:47:04.040Z,9.43
2022-08-03T08:49:32.890Z,10.00
2022-08-03T08:52:01.394Z,11.43
2022-08-03T08:54:29.547Z,9.90
2022-08-03T08:56:58.673Z,10.13
2022-08-03T08:59:25.492Z,8.80
2022-08-03T09:01:57.027Z,9.65
2022-08-03T09:04:23.655Z,8.43
2022-08-03T09:07:17.683Z,9.02
2022-08-03T09:10:10.483Z,8.48
2022-08-03T09:12:41.143Z,6.80
2022-08-03T09:15:24.899Z,9.85
2022-08-03T09:17:53.261Z,8.52
2022-08-03T09:20:21.668Z,11.60
2022-08-03T09:23:01.406Z,12.15
2022-08-03T09:25:35.034Z,9.88
2022-08-03T09:28:52.547Z,13.13
2022-08-03T09:31:01.632Z,12.02
2022-08-03T09:33:36.003Z,13.27
2022-08-03T09:36:02.660Z,15.75
2022-08-03T09:38:29.024Z,12.13
2022-08-03T09:41:00.086Z,12.35
2022-08-03T09:43:27.530Z,13.10
2022-08-03T09:46:05.814Z,14.48
2022-08-03T09:48:32.457Z,11.13
2022-08-03T09:51:13.610Z,17.02
2022-08-03T09:53:59.007Z,14.50
2022-08-03T09:56:41.095Z,14.13
2022-08-03T09:59:07.601Z,12.75
2022-08-03T10:01:36.350Z,16.73
2022-08-03T10:04:05.127Z,13.23
2022-08-03T10:06:32.068Z,10.18
2022-08-03T10:09:06.709Z,14.77
2022-08-03T10:11:38.849Z,13.02
2022-08-03T10:14:10.811Z,15.63
2022-08-03T10:16:40.180Z,13.73
2022-08-03T10:19:08.839Z,11.90
2022-08-03T10:21:38.626Z,12.32
2022-08-03T10:24:07.284Z,13.57
2022-08-03T10:26:35.941Z,11.68
2022-08-03T10:29:07.282Z,13.15
2022-08-03T10:31:54.753Z,12.57
2022-08-03T10:34:28.926Z,13.48
2022-08-03T10:36:59.091Z,18.75
2022-08-03T10:39:29.513Z,15.25
2022-08-03T10:41:56.712Z,14.43
2022-08-03T10:44:25.878Z,15.32
2022-08-03T10:46:53.143Z,12.32
2022-08-03T10:49:33.569Z,12.13
2022-08-03T10:52:02.595Z,11.90
2022-08-03T10:54:39.252Z,10.57
2022-08-03T10:57:14.329Z,16.17
2022-08-03T10:59:47.162Z,11.50
2022-08-03T11:02:14.883Z,12.38
2022-08-03T11:04:42.634Z,11.57
2022-08-03T11:07:23.668Z,12.35
2022-08-03T11:09:52.482Z,13.85
2022-08-03T11:12:34.149Z,11.07
2022-08-03T11:15:03.725Z,11.45
2022-08-03T11:17:30.339Z,8.40
2022-08-03T11:19:58.478Z,11.68
2022-08-03T11:22:25.914Z,9.88
2022-08-03T11:24:52.178Z,13.52
2022-08-03T11:27:29.668Z,13.73
2022-08-03T11:30:00.166Z,11.07
2022-08-03T11:32:38.924Z,9.50
2022-08-03T11:35:18.583Z,10.77
2022-08-03T11:38:03.220Z,12.32
2022-08-03T11:40:51.020Z,11.48
2022-08-03T11:43:25.741Z,11.68
2022-08-03T11:46:05.937Z,10.55
2022-08-03T11:48:40.191Z,10.38
2022-08-03T11:51:19.288Z,9.10
2022-08-03T11:53:45.824Z,9.13
2022-08-03T11:56:13.009Z,11.52
2022-08-03T11:59:19.290Z,11.45
2022-08-03T12:01:37.022Z,9.90
2022-08-03T12:04:05.180Z,10.00
2022-08-03T12:06:31.545Z,9.70
2022-08-03T12:08:57.913Z,11.23
2022-08-03T12:11:24.397Z,8.43
2022-08-03T12:14:28.932Z,9.15
2022-08-03T12:16:37.817Z,15.32
2022-08-03T12:19:05.661Z,8.88
2022-08-03T12:21:32.422Z,11.43
2022-08-03T12:24:04.200Z,10.85
2022-08-03T12:26:58.433Z,9.75
2022-08-03T12:29:26.366Z,11.02
2022-08-03T12:31:52.746Z,7.50
2022-08-03T12:34:19.112Z,8.70
2022-08-03T12:36:54.603Z,10.93
2022-08-03T12:39:25.986Z,7.93
2022-08-03T12:44:30.293Z,7.78
2022-08-03T12:47:00.696Z,6.13
2022-08-03T12:49:27.264Z,11.00
2022-08-03T12:51:53.604Z,8.75
2022-08-03T12:54:24.550Z,6.50
2022-08-03T12:59:52.733Z,8.40
2022-08-03T13:02:26.263Z,8.95
2022-08-03T13:04:54.245Z,11.40
2022-08-03T13:07:21.761Z,12.38
2022-08-03T13:09:53.214Z,8.05
2022-08-03T13:12:21.506Z,9.82
2022-08-03T13:14:51.493Z,9.75
2022-08-03T13:17:18.794Z,7.75
2022-08-03T13:19:46.492Z,8.35
2022-08-03T13:22:24.109Z,8.63
2022-08-03T13:24:55.214Z,7.32
2022-08-03T13:28:13.953Z,8.77
2022-08-03T13:30:09.178Z,10.63
2022-08-03T13:32:35.961Z,8.23
2022-08-03T13:35:02.567Z,9.75
2022-08-03T13:37:30.145Z,8.45
2022-08-03T13:39:58.829Z,8.95
2022-08-03T13:42:27.865Z,7.10
2022-08-03T13:44:54.292Z,10.40
2022-08-03T13:47:21.117Z,8.05
2022-08-03T13:49:54.246Z,6.60
2022-08-03T13:52:37.738Z,7.53
2022-08-03T13:55:05.989Z,8.35
2022-08-03T13:58:06.580Z,8.02
2022-08-03T14:00:27.657Z,8.93
2022-08-03T14:03:02.761Z,6.40
2022-08-03T14:05:32.144Z,10.02
2022-08-03T14:08:04.317Z,7.25
2022-08-03T14:10:31.824Z,6.47
2022-08-03T14:12:58.210Z,7.93
2022-08-03T14:15:24.599Z,5.35
2022-08-03T14:17:51.215Z,8.75
2022-08-03T14:20:36.348Z,6.10
2022-08-03T14:23:04.242Z,6.80
2022-08-03T14:25:30.697Z,6.28
2022-08-03T14:28:09.806Z,7.78
2022-08-03T14:30:36.551Z,6.13
2022-08-03T14:33:02.988Z,6.28
2022-08-03T14:35:29.475Z,5.68
2022-08-03T14:37:55.849Z,6.75
2022-08-03T14:40:22.389Z,5.18
2022-08-03T14:42:48.901Z,4.50
2022-08-03T14:45:20.274Z,6.55
2022-08-03T14:50:29.666Z,5.93
2022-08-03T14:50:42.880Z,4.80
2022-08-03T14:53:12.274Z,5.00
2022-08-03T14:55:50.482Z,5.68
2022-08-03T14:58:19.801Z,3.97
2022-08-03T15:00:48.869Z,7.55
2022-08-03T15:03:16.801Z,8.48
2022-08-03T15:05:44.309Z,5.57
2022-08-03T15:08:10.691Z,7.45
2022-08-03T15:10:44.487Z,5.20
2022-08-03T15:13:12.944Z,5.68
2022-08-03T15:15:39.428Z,5.55
2022-08-03T15:18:05.938Z,5.30
2022-08-03T15:20:43.849Z,5.65
2022-08-03T15:23:12.329Z,4.88
2022-08-03T15:26:28.841Z,6.35
2022-08-03T15:28:25.110Z,5.15
2022-08-03T15:30:57.338Z,5.40
2022-08-03T15:33:23.718Z,6.93
2022-08-03T15:35:50.181Z,6.93
2022-08-03T15:38:17.187Z,5.43
2022-08-03T15:40:43.622Z,5.72
2022-08-03T15:43:10.038Z,5.25
2022-08-03T15:45:37.139Z,6.85
2022-08-03T15:48:05.351Z,4.47
2022-08-03T15:50:31.697Z,5.30
2022-08-03T15:52:58.093Z,5.05
2022-08-03T15:55:24.490Z,6.45
2022-08-03T15:58:59.647Z,5.40
2022-08-03T16:00:38.056Z,5.47
2022-08-03T16:03:04.644Z,4.88
2022-08-03T16:05:31.044Z,6.07
2022-08-03T16:08:02.990Z,6.32
2022-08-03T16:10:30.856Z,5.90
2022-08-03T16:12:57.450Z,8.30
2022-08-03T16:15:23.829Z,5.88
2022-08-03T16:17:50.228Z,8.98
2022-08-03T16:20:31.245Z,7.25
2022-08-03T16:23:09.141Z,5.20
2022-08-03T16:25:38.080Z,7.20
2022-08-03T16:28:07.771Z,6.85
2022-08-03T16:30:39.841Z,7.00
2022-08-03T16:33:06.256Z,4.88
2022-08-03T16:35:32.793Z,7.05
2022-08-03T16:37:59.197Z,6.13
2022-08-03T16:40:26.155Z,6.30
2022-08-03T16:42:52.559Z,7.15
2022-08-03T16:45:18.977Z,6.35
2022-08-03T16:47:45.553Z,6.47
2022-08-03T16:50:18.947Z,6.35
2022-08-03T16:52:46.902Z,5.35
2022-08-03T16:55:15.609Z,9.38
2022-08-03T16:57:59.069Z,6.88
2022-08-03T17:00:33.237Z,5.03
2022-08-03T17:03:03.943Z,5.07
2022-08-03T17:05:43.905Z,5.15
2022-08-03T17:08:14.366Z,5.68
2022-08-03T17:10:44.581Z,6.38
2022-08-03T17:13:12.704Z,7.03
2022-08-03T17:16:03.023Z,12.35
2022-08-03T17:18:38.809Z,9.70
2022-08-03T17:21:10.304Z,6.43
2022-08-03T17:23:56.438Z,5.07
2022-08-03T17:26:30.395Z,4.82
2022-08-03T17:29:11.172Z,7.00
2022-08-03T17:31:48.423Z,6.45
2022-08-03T17:34:16.364Z,6.10
2022-08-03T17:39:56.841Z,8.00
2022-08-03T17:42:29.258Z,6.85
2022-08-03T17:45:01.588Z,4.38
2022-08-03T17:47:41.355Z,7.03
2022-08-03T17:50:24.649Z,7.35
2022-08-03T17:53:07.248Z,6.15
2022-08-03T17:55:54.863Z,5.60
2022-08-03T17:59:08.976Z,6.15
2022-08-03T18:02:12.212Z,4.15
2022-08-03T18:04:55.229Z,6.43
2022-08-03T18:07:25.520Z,5.53
2022-08-03T18:10:11.238Z,4.82
2022-08-03T18:13:10.597Z,3.63
2022-08-03T18:15:46.046Z,7.43
2022-08-03T18:18:15.690Z,6.15
2022-08-03T18:20:45.645Z,6.43
2022-08-03T18:23:24.922Z,6.70
2022-08-03T18:26:01.704Z,8.05
2022-08-03T18:28:28.977Z,5.50
2022-08-03T18:30:57.166Z,6.22
2022-08-03T18:34:16.705Z,6.38
2022-08-03T18:36:17.980Z,5.55
2022-08-03T18:38:49.742Z,6.22
2022-08-03T18:41:22.104Z,4.35
2022-08-03T18:44:06.627Z,4.78
2022-08-03T18:46:45.731Z,3.85
2022-08-03T18:49:24.047Z,5.53
2022-08-03T18:54:59.037Z,5.72
2022-08-03T18:57:38.107Z,8.18
2022-08-03T19:00:06.773Z,5.90
2022-08-03T19:03:10.844Z,5.45
2022-08-03T19:06:01.938Z,6.13
2022-08-03T19:08:54.734Z,5.68
2022-08-03T19:12:14.017Z,9.75
2022-08-03T19:14:34.601Z,6.90
2022-08-03T19:17:11.795Z,7.53
2022-08-03T19:19:44.872Z,5.80
2022-08-03T19:22:16.318Z,6.15
2022-08-03T19:24:45.706Z,5.97
2022-08-03T19:27:12.768Z,7.20
2022-08-03T19:30:00.140Z,5.75
2022-08-03T19:32:30.529Z,7.70
2022-08-03T19:34:59.461Z,6.63
2022-08-03T19:37:26.169Z,9.55
2022-08-03T19:40:05.766Z,6.85
2022-08-03T19:42:42.802Z,6.88
2022-08-03T19:45:14.656Z,7.35
2022-08-03T19:47:58.444Z,5.95
2022-08-03T19:52:52.751Z,6.10
2022-08-03T19:55:19.480Z,7.25
2022-08-03T19:57:49.327Z,9.70
2022-08-03T20:00:17.356Z,7.63
2022-08-03T20:02:45.125Z,7.82
2022-08-03T20:05:14.779Z,6.78
2022-08-03T20:07:47.459Z,8.55
2022-08-03T20:10:16.480Z,10.32
2022-08-03T20:12:44.139Z,8.00
2022-08-03T20:15:10.939Z,5.60
2022-08-03T20:17:55.440Z,8.30
2022-08-03T20:23:18.313Z,7.43
2022-08-03T20:25:57.335Z,8.02
2022-08-03T20:28:28.485Z,10.40
2022-08-03T20:30:56.774Z,7.35
2022-08-03T20:33:34.585Z,10.38
2022-08-03T20:36:11.370Z,5.28
2022-08-03T20:38:43.699Z,6.38
2022-08-03T20:41:13.801Z,10.25
2022-08-03T20:43:41.138Z,7.55
2022-08-03T20:46:29.202Z,7.95
2022-08-03T20:48:55.298Z,9.43
2022-08-03T20:51:50.425Z,8.88
2022-08-03T20:54:29.768Z,8.35
2022-08-03T20:56:56.488Z,9.50
2022-08-03T20:59:23.488Z,9.05
2022-08-03T21:01:50.529Z,7.00
2022-08-03T21:04:20.863Z,10.10
2022-08-03T21:06:53.476Z,7.85
2022-08-03T21:09:39.816Z,7.90
2022-08-03T21:12:12.032Z,8.02
2022-08-03T21:13:03.878Z,9.60
2022-08-03T21:14:49.063Z,10.82
2022-08-03T21:17:38.327Z,10.02
2022-08-03T21:20:11.658Z,9.85
2022-08-03T21:22:39.675Z,12.30
2022-08-03T21:25:08.041Z,9.10
2022-08-03T21:27:35.846Z,5.93
2022-08-03T21:30:06.461Z,8.88
2022-08-03T21:32:33.560Z,9.52
2022-08-03T21:35:00.263Z,9.43
2022-08-03T21:37:28.325Z,9.38
2022-08-03T21:39:55.631Z,8.52
2022-08-03T21:42:23.023Z,10.27
2022-08-03T21:44:53.576Z,9.60
2022-08-03T21:47:22.773Z,13.00
2022-08-03T21:50:06.136Z,9.57
2022-08-03T21:52:40.067Z,13.23
2022-08-03T21:55:07.366Z,10.85
2022-08-03T21:57:34.823Z,12.05
2022-08-03T22:00:11.666Z,8.88
2022-08-03T22:02:39.753Z,9.45
2022-08-03T22:05:09.482Z,9.32
2022-08-03T22:07:42.889Z,9.93
2022-08-03T22:10:10.552Z,8.70
2022-08-03T22:12:38.121Z,11.30
2022-08-03T22:15:08.546Z,10.38
2022-08-03T22:17:55.106Z,10.48
2022-08-03T22:20:23.260Z,10.82
2022-08-03T22:22:55.979Z,11.25
2022-08-03T22:25:28.088Z,12.30
2022-08-03T22:27:55.022Z,8.48
2022-08-03T22:30:21.637Z,8.30
2022-08-03T22:32:51.828Z,9.35
2022-08-03T22:35:20.220Z,8.52
2022-08-03T22:37:49.468Z,10.07
2022-08-03T22:40:17.170Z,9.90
2022-08-03T22:42:45.516Z,9.82
2022-08-03T22:45:45.868Z,8.77
2022-08-03T22:47:59.796Z,7.95
2022-08-03T22:50:31.715Z,9.13
2022-08-03T22:53:00.135Z,9.98
2022-08-03T22:55:26.951Z,9.52
2022-08-03T22:57:55.802Z,13.38
2022-08-03T23:00:23.100Z,11.60
2022-08-03T23:02:51.872Z,10.57
2022-08-03T23:06:02.272Z,10.63
2022-08-03T23:10:46.730Z,9.18
2022-08-03T23:13:16.333Z,11.43
2022-08-03T23:15:58.222Z,12.70
2022-08-03T23:18:28.023Z,10.32
2022-08-03T23:20:58.036Z,10.27
2022-08-03T23:23:24.392Z,9.30
2022-08-03T23:25:51.866Z,9.18
2022-08-03T23:28:18.834Z,7.53
2022-08-03T23:30:45.919Z,8.40
2022-08-03T23:33:14.739Z,9.38
2022-08-03T23:36:22.581Z,10.00
2022-08-03T23:38:34.091Z,9.63
2022-08-03T23:41:02.204Z,10.23
2022-08-03T23:43:50.829Z,7.75
2022-08-03T23:46:21.931Z,5.20
2022-08-03T23:48:48.338Z,8.77
2022-08-03T23:51:38.817Z,8.40
2022-08-03T23:54:23.889Z,8.10
2022-08-03T23:57:27.643Z,11.30
